sensor_id;sensor_type;location;lat;lon;timestamp;P1;durP1;ratioP1;P2;durP2;ratioP2
34828;SDS011;21042;47.620;12.188;2023-08-01T00:01:01;4.80;;;2.78;;
34828;SDS011;21042;47.620;12.188;2023-08-01T00:03:28;6.68;;;3.00;;
34828;SDS011;21042;47.620;12.188;2023-08-01T00:05:55;5.30;;;2.58;;
34828;SDS011;21042;47.620;12.188;2023-08-01T00:08:22;6.22;;;2.67;;
34828;SDS011;21042;47.620;12.188;2023-08-01T00:10:49;5.68;;;2.47;;
34828;SDS011;21042;47.620;12.188;2023-08-01T00:13:15;8.63;;;2.75;;
34828;SDS011;21042;47.620;12.188;2023-08-01T00:15:42;4.13;;;2.45;;
34828;SDS011;21042;47.620;12.188;2023-08-01T00:18:29;4.63;;;3.00;;
34828;SDS011;21042;47.620;12.188;2023-08-01T00:20:55;6.45;;;3.08;;
34828;SDS011;21042;47.620;12.188;2023-08-01T00:23:22;4.45;;;2.70;;
34828;SDS011;21042;47.620;12.188;2023-08-01T00:25:49;10.02;;;3.00;;
34828;SDS011;21042;47.620;12.188;2023-08-01T00:28:18;7.20;;;3.10;;
34828;SDS011;21042;47.620;12.188;2023-08-01T00:30:44;5.20;;;3.22;;
34828;SDS011;21042;47.620;12.188;2023-08-01T00:33:11;5.40;;;2.92;;
34828;SDS011;21042;47.620;12.188;2023-08-01T00:35:39;5.05;;;3.08;;
34828;SDS011;21042;47.620;12.188;2023-08-01T00:38:06;5.93;;;3.08;;
34828;SDS011;21042;47.620;12.188;2023-08-01T00:40:33;6.38;;;2.60;;
34828;SDS011;21042;47.620;12.188;2023-08-01T00:43:00;5.90;;;3.30;;
34828;SDS011;21042;47.620;12.188;2023-08-01T00:45:27;5.15;;;3.00;;
34828;SDS011;21042;47.620;12.188;2023-08-01T00:47:55;4.97;;;2.90;;
34828;SDS011;21042;47.620;12.188;2023-08-01T00:50:22;4.03;;;2.63;;
34828;SDS011;21042;47.620;12.188;2023-08-01T00:52:50;8.27;;;3.10;;
34828;SDS011;21042;47.620;12.188;2023-08-01T00:55:18;3.47;;;2.50;;
34828;SDS011;21042;47.620;12.188;2023-08-01T00:57:46;5.15;;;2.80;;
34828;SDS011;21042;47.620;12.188;2023-08-01T01:00:13;5.07;;;2.85;;
34828;SDS011;21042;47.620;12.188;2023-08-01T01:02:40;5.18;;;3.05;;
34828;SDS011;21042;47.620;12.188;2023-08-01T01:05:07;4.45;;;3.05;;
34828;SDS011;21042;47.620;12.188;2023-08-01T01:07:34;5.80;;;2.90;;
34828;SDS011;21042;47.620;12.188;2023-08-01T01:10:02;6.40;;;3.78;;
34828;SDS011;21042;47.620;12.188;2023-08-01T01:12:29;6.13;;;3.13;;
34828;SDS011;21042;47.620;12.188;2023-08-01T01:14:56;6.15;;;2.85;;
34828;SDS011;21042;47.620;12.188;2023-08-01T01:17:23;4.68;;;3.28;;
34828;SDS011;21042;47.620;12.188;2023-08-01T01:19:49;6.30;;;3.05;;
34828;SDS011;21042;47.620;12.188;2023-08-01T01:22:16;5.35;;;2.90;;
34828;SDS011;21042;47.620;12.188;2023-08-01T01:24:44;5.32;;;3.55;;
34828;SDS011;21042;47.620;12.188;2023-08-01T01:27:12;5.47;;;3.28;;
34828;SDS011;21042;47.620;12.188;2023-08-01T01:29:41;5.32;;;3.47;;
34828;SDS011;21042;47.620;12.188;2023-08-01T01:32:10;6.38;;;3.53;;
34828;SDS011;21042;47.620;12.188;2023-08-01T01:34:38;7.32;;;4.32;;
34828;SDS011;21042;47.620;12.188;2023-08-01T01:37:05;4.60;;;3.33;;
34828;SDS011;21042;47.620;12.188;2023-08-01T01:39:31;9.05;;;4.28;;
34828;SDS011;21042;47.620;12.188;2023-08-01T01:41:58;4.72;;;3.72;;
34828;SDS011;21042;47.620;12.188;2023-08-01T01:44:25;9.43;;;3.90;;
34828;SDS011;21042;47.620;12.188;2023-08-01T01:46:52;5.03;;;3.38;;
34828;SDS011;21042;47.620;12.188;2023-08-01T01:49:18;7.00;;;3.28;;
34828;SDS011;21042;47.620;12.188;2023-08-01T01:51:45;7.70;;;3.53;;
34828;SDS011;21042;47.620;12.188;2023-08-01T01:54:12;9.95;;;4.07;;
34828;SDS011;21042;47.620;12.188;2023-08-01T01:56:39;6.97;;;3.42;;
34828;SDS011;21042;47.620;12.188;2023-08-01T02:01:33;7.15;;;3.72;;
34828;SDS011;21042;47.620;12.188;2023-08-01T02:03:59;7.40;;;4.00;;
34828;SDS011;21042;47.620;12.188;2023-08-01T02:06:26;9.82;;;4.10;;
34828;SDS011;21042;47.620;12.188;2023-08-01T02:08:54;6.70;;;4.22;;
34828;SDS011;21042;47.620;12.188;2023-08-01T02:11:22;9.80;;;4.25;;
34828;SDS011;21042;47.620;12.188;2023-08-01T02:13:49;6.68;;;3.25;;
34828;SDS011;21042;47.620;12.188;2023-08-01T02:16:15;7.35;;;3.90;;
34828;SDS011;21042;47.620;12.188;2023-08-01T02:18:43;7.78;;;3.70;;
34828;SDS011;21042;47.620;12.188;2023-08-01T02:21:10;5.25;;;3.47;;
34828;SDS011;21042;47.620;12.188;2023-08-01T02:23:36;9.18;;;4.50;;
34828;SDS011;21042;47.620;12.188;2023-08-01T02:26:04;7.53;;;4.53;;
34828;SDS011;21042;47.620;12.188;2023-08-01T02:28:30;10.85;;;4.93;;
34828;SDS011;21042;47.620;12.188;2023-08-01T02:30:57;8.25;;;4.57;;
34828;SDS011;21042;47.620;12.188;2023-08-01T02:33:24;7.80;;;4.40;;
34828;SDS011;21042;47.620;12.188;2023-08-01T02:35:51;6.47;;;4.10;;
34828;SDS011;21042;47.620;12.188;2023-08-01T02:38:18;8.35;;;4.25;;
34828;SDS011;21042;47.620;12.188;2023-08-01T02:40:45;6.85;;;4.00;;
34828;SDS011;21042;47.620;12.188;2023-08-01T02:43:12;6.43;;;4.13;;
34828;SDS011;21042;47.620;12.188;2023-08-01T02:45:39;8.68;;;3.78;;
34828;SDS011;21042;47.620;12.188;2023-08-01T02:48:08;6.75;;;4.10;;
34828;SDS011;21042;47.620;12.188;2023-08-01T02:53:02;6.50;;;4.50;;
34828;SDS011;21042;47.620;12.188;2023-08-01T02:55:31;6.63;;;4.47;;
34828;SDS011;21042;47.620;12.188;2023-08-01T02:57:58;11.07;;;4.75;;
34828;SDS011;21042;47.620;12.188;2023-08-01T03:00:24;10.30;;;5.18;;
34828;SDS011;21042;47.620;12.188;2023-08-01T03:02:51;8.93;;;4.68;;
34828;SDS011;21042;47.620;12.188;2023-08-01T03:05:19;9.40;;;4.97;;
34828;SDS011;21042;47.620;12.188;2023-08-01T03:07:46;7.15;;;4.82;;
34828;SDS011;21042;47.620;12.188;2023-08-01T03:10:13;8.30;;;4.70;;
34828;SDS011;21042;47.620;12.188;2023-08-01T03:12:55;11.07;;;4.72;;
34828;SDS011;21042;47.620;12.188;2023-08-01T03:15:22;8.35;;;4.95;;
34828;SDS011;21042;47.620;12.188;2023-08-01T03:17:49;8.52;;;4.40;;
34828;SDS011;21042;47.620;12.188;2023-08-01T03:20:16;12.55;;;3.95;;
34828;SDS011;21042;47.620;12.188;2023-08-01T03:22:42;7.45;;;4.38;;
34828;SDS011;21042;47.620;12.188;2023-08-01T03:25:10;6.40;;;4.75;;
34828;SDS011;21042;47.620;12.188;2023-08-01T03:27:37;11.45;;;5.25;;
34828;SDS011;21042;47.620;12.188;2023-08-01T03:30:04;8.40;;;5.28;;
34828;SDS011;21042;47.620;12.188;2023-08-01T03:32:35;7.00;;;5.18;;
34828;SDS011;21042;47.620;12.188;2023-08-01T03:35:04;14.43;;;5.57;;
34828;SDS011;21042;47.620;12.188;2023-08-01T03:37:31;10.48;;;5.75;;
34828;SDS011;21042;47.620;12.188;2023-08-01T03:42:25;8.95;;;4.95;;
34828;SDS011;21042;47.620;12.188;2023-08-01T03:44:52;8.23;;;5.43;;
34828;SDS011;21042;47.620;12.188;2023-08-01T03:47:19;10.52;;;5.13;;
34828;SDS011;21042;47.620;12.188;2023-08-01T03:49:45;10.50;;;5.57;;
34828;SDS011;21042;47.620;12.188;2023-08-01T03:52:13;8.68;;;4.85;;
34828;SDS011;21042;47.620;12.188;2023-08-01T03:54:40;8.73;;;5.18;;
34828;SDS011;21042;47.620;12.188;2023-08-01T03:57:07;11.55;;;4.82;;
34828;SDS011;21042;47.620;12.188;2023-08-01T03:59:34;8.60;;;5.90;;
34828;SDS011;21042;47.620;12.188;2023-08-01T04:02:03;10.13;;;6.07;;
34828;SDS011;21042;47.620;12.188;2023-08-01T04:04:30;9.57;;;5.53;;
34828;SDS011;21042;47.620;12.188;2023-08-01T04:06:57;10.13;;;6.05;;
34828;SDS011;21042;47.620;12.188;2023-08-01T04:09:24;8.30;;;5.30;;
34828;SDS011;21042;47.620;12.188;2023-08-01T04:11:51;7.78;;;5.20;;
34828;SDS011;21042;47.620;12.188;2023-08-01T04:14:17;12.30;;;7.53;;
34828;SDS011;21042;47.620;12.188;2023-08-01T04:16:44;10.23;;;6.20;;
34828;SDS011;21042;47.620;12.188;2023-08-01T04:21:39;11.25;;;5.88;;
34828;SDS011;21042;47.620;12.188;2023-08-01T04:24:06;15.50;;;6.68;;
34828;SDS011;21042;47.620;12.188;2023-08-01T04:26:32;13.82;;;6.82;;
34828;SDS011;21042;47.620;12.188;2023-08-01T04:28:59;12.98;;;6.90;;
34828;SDS011;21042;47.620;12.188;2023-08-01T04:31:26;18.05;;;7.68;;
34828;SDS011;21042;47.620;12.188;2023-08-01T04:33:53;10.13;;;6.50;;
34828;SDS011;21042;47.620;12.188;2023-08-01T04:36:19;11.40;;;7.03;;
34828;SDS011;21042;47.620;12.188;2023-08-01T04:38:46;14.15;;;6.00;;
34828;SDS011;21042;47.620;12.188;2023-08-01T04:41:13;11.32;;;6.00;;
34828;SDS011;21042;47.620;12.188;2023-08-01T04:43:39;14.02;;;6.32;;
34828;SDS011;21042;47.620;12.188;2023-08-01T04:46:06;10.32;;;6.47;;
34828;SDS011;21042;47.620;12.188;2023-08-01T04:48:33;11.13;;;6.10;;
34828;SDS011;21042;47.620;12.188;2023-08-01T04:51:00;12.88;;;6.47;;
34828;SDS011;21042;47.620;12.188;2023-08-01T04:53:26;10.20;;;5.55;;
34828;SDS011;21042;47.620;12.188;2023-08-01T04:55:53;8.07;;;4.15;;
34828;SDS011;21042;47.620;12.188;2023-08-01T04:58:20;8.77;;;5.45;;
34828;SDS011;21042;47.620;12.188;2023-08-01T05:00:47;14.23;;;6.57;;
34828;SDS011;21042;47.620;12.188;2023-08-01T05:03:13;7.93;;;5.57;;
34828;SDS011;21042;47.620;12.188;2023-08-01T05:05:40;13.18;;;5.43;;
34828;SDS011;21042;47.620;12.188;2023-08-01T05:08:07;11.65;;;6.03;;
34828;SDS011;21042;47.620;12.188;2023-08-01T05:10:34;9.98;;;5.97;;
34828;SDS011;21042;47.620;12.188;2023-08-01T05:13:01;14.80;;;6.55;;
34828;SDS011;21042;47.620;12.188;2023-08-01T05:15:28;14.48;;;5.13;;
34828;SDS011;21042;47.620;12.188;2023-08-01T05:17:57;10.77;;;5.43;;
34828;SDS011;21042;47.620;12.188;2023-08-01T05:20:24;11.52;;;5.50;;
34828;SDS011;21042;47.620;12.188;2023-08-01T05:22:59;9.57;;;5.05;;
34828;SDS011;21042;47.620;12.188;2023-08-01T05:25:26;11.05;;;5.32;;
34828;SDS011;21042;47.620;12.188;2023-08-01T05:27:53;14.52;;;5.85;;
34828;SDS011;21042;47.620;12.188;2023-08-01T05:30:19;9.02;;;4.95;;
34828;SDS011;21042;47.620;12.188;2023-08-01T05:32:46;9.68;;;6.28;;
34828;SDS011;21042;47.620;12.188;2023-08-01T05:35:14;11.65;;;5.10;;
34828;SDS011;21042;47.620;12.188;2023-08-01T05:37:41;6.90;;;4.57;;
34828;SDS011;21042;47.620;12.188;2023-08-01T05:40:08;10.00;;;4.97;;
34828;SDS011;21042;47.620;12.188;2023-08-01T05:42:35;16.70;;;5.63;;
34828;SDS011;21042;47.620;12.188;2023-08-01T05:45:02;11.10;;;5.47;;
34828;SDS011;21042;47.620;12.188;2023-08-01T05:47:30;8.75;;;5.90;;
34828;SDS011;21042;47.620;12.188;2023-08-01T05:52:24;15.43;;;5.55;;
34828;SDS011;21042;47.620;12.188;2023-08-01T05:54:51;9.02;;;5.60;;
34828;SDS011;21042;47.620;12.188;2023-08-01T05:57:18;14.70;;;6.00;;
34828;SDS011;21042;47.620;12.188;2023-08-01T05:59:44;10.20;;;5.88;;
34828;SDS011;21042;47.620;12.188;2023-08-01T06:04:38;8.05;;;5.03;;
34828;SDS011;21042;47.620;12.188;2023-08-01T06:07:05;12.25;;;5.78;;
34828;SDS011;21042;47.620;12.188;2023-08-01T06:09:32;7.82;;;5.18;;
34828;SDS011;21042;47.620;12.188;2023-08-01T06:11:59;10.20;;;5.65;;
34828;SDS011;21042;47.620;12.188;2023-08-01T06:14:26;11.02;;;5.88;;
34828;SDS011;21042;47.620;12.188;2023-08-01T06:16:53;44.67;;;7.60;;
34828;SDS011;21042;47.620;12.188;2023-08-01T06:19:20;11.20;;;5.60;;
34828;SDS011;21042;47.620;12.188;2023-08-01T06:21:46;10.52;;;6.13;;
34828;SDS011;21042;47.620;12.188;2023-08-01T06:24:13;15.68;;;7.38;;
34828;SDS011;21042;47.620;12.188;2023-08-01T06:26:40;21.73;;;7.13;;
34828;SDS011;21042;47.620;12.188;2023-08-01T06:29:07;12.73;;;6.45;;
34828;SDS011;21042;47.620;12.188;2023-08-01T06:31:34;9.93;;;6.45;;
34828;SDS011;21042;47.620;12.188;2023-08-01T06:34:01;12.07;;;5.93;;
34828;SDS011;21042;47.620;12.188;2023-08-01T06:36:28;9.77;;;6.00;;
34828;SDS011;21042;47.620;12.188;2023-08-01T06:38:54;12.45;;;6.28;;
34828;SDS011;21042;47.620;12.188;2023-08-01T06:41:21;9.57;;;5.43;;
34828;SDS011;21042;47.620;12.188;2023-08-01T06:43:50;8.07;;;5.43;;
34828;SDS011;21042;47.620;12.188;2023-08-01T06:46:17;11.13;;;5.40;;
34828;SDS011;21042;47.620;12.188;2023-08-01T06:48:44;12.80;;;5.97;;
34828;SDS011;21042;47.620;12.188;2023-08-01T06:51:10;9.82;;;5.60;;
34828;SDS011;21042;47.620;12.188;2023-08-01T06:53:37;9.15;;;5.38;;
34828;SDS011;21042;47.620;12.188;2023-08-01T06:56:04;8.95;;;5.95;;
34828;SDS011;21042;47.620;12.188;2023-08-01T06:58:31;11.57;;;5.78;;
34828;SDS011;21042;47.620;12.188;2023-08-01T07:00:57;13.75;;;6.05;;
34828;SDS011;21042;47.620;12.188;2023-08-01T07:03:24;9.15;;;5.95;;
34828;SDS011;21042;47.620;12.188;2023-08-01T07:05:51;5.97;;;4.30;;
34828;SDS011;21042;47.620;12.188;2023-08-01T07:08:19;7.65;;;5.18;;
34828;SDS011;21042;47.620;12.188;2023-08-01T07:10:47;9.20;;;4.97;;
34828;SDS011;21042;47.620;12.188;2023-08-01T07:13:14;7.38;;;4.70;;
34828;SDS011;21042;47.620;12.188;2023-08-01T07:15:42;8.27;;;4.65;;
34828;SDS011;21042;47.620;12.188;2023-08-01T07:18:09;12.48;;;6.00;;
34828;SDS011;21042;47.620;12.188;2023-08-01T07:20:35;7.97;;;5.28;;
34828;SDS011;21042;47.620;12.188;2023-08-01T07:23:02;8.00;;;4.85;;
34828;SDS011;21042;47.620;12.188;2023-08-01T07:25:29;8.52;;;5.10;;
34828;SDS011;21042;47.620;12.188;2023-08-01T07:27:56;7.97;;;4.50;;
34828;SDS011;21042;47.620;12.188;2023-08-01T07:30:24;5.72;;;4.20;;
34828;SDS011;21042;47.620;12.188;2023-08-01T07:32:50;10.93;;;5.18;;
34828;SDS011;21042;47.620;12.188;2023-08-01T07:35:17;8.75;;;5.28;;
34828;SDS011;21042;47.620;12.188;2023-08-01T07:37:44;11.30;;;5.88;;
34828;SDS011;21042;47.620;12.188;2023-08-01T07:40:11;10.90;;;4.97;;
34828;SDS011;21042;47.620;12.188;2023-08-01T07:42:37;10.38;;;5.43;;
34828;SDS011;21042;47.620;12.188;2023-08-01T07:45:04;10.00;;;5.32;;
34828;SDS011;21042;47.620;12.188;2023-08-01T07:47:32;8.50;;;5.13;;
34828;SDS011;21042;47.620;12.188;2023-08-01T07:49:59;7.93;;;5.07;;
34828;SDS011;21042;47.620;12.188;2023-08-01T07:52:26;6.50;;;4.50;;
34828;SDS011;21042;47.620;12.188;2023-08-01T07:54:52;9.05;;;5.35;;
34828;SDS011;21042;47.620;12.188;2023-08-01T07:57:22;10.57;;;5.63;;
34828;SDS011;21042;47.620;12.188;2023-08-01T07:59:48;10.77;;;5.60;;
34828;SDS011;21042;47.620;12.188;2023-08-01T08:02:15;8.43;;;5.15;;
34828;SDS011;21042;47.620;12.188;2023-08-01T08:04:42;16.23;;;6.13;;
34828;SDS011;21042;47.620;12.188;2023-08-01T08:07:09;9.30;;;5.97;;
34828;SDS011;21042;47.620;12.188;2023-08-01T08:09:35;10.75;;;6.45;;
34828;SDS011;21042;47.620;12.188;2023-08-01T08:12:02;11.60;;;6.60;;
34828;SDS011;21042;47.620;12.188;2023-08-01T08:14:29;13.07;;;6.85;;
34828;SDS011;21042;47.620;12.188;2023-08-01T08:16:56;12.68;;;7.03;;
34828;SDS011;21042;47.620;12.188;2023-08-01T08:19:23;18.98;;;7.40;;
34828;SDS011;21042;47.620;12.188;2023-08-01T08:21:51;11.88;;;6.43;;
34828;SDS011;21042;47.620;12.188;2023-08-01T08:24:18;8.45;;;5.82;;
34828;SDS011;21042;47.620;12.188;2023-08-01T08:26:45;9.98;;;5.55;;
34828;SDS011;21042;47.620;12.188;2023-08-01T08:29:12;8.38;;;5.05;;
34828;SDS011;21042;47.620;12.188;2023-08-01T08:31:38;8.20;;;5.20;;
34828;SDS011;21042;47.620;12.188;2023-08-01T08:34:05;7.70;;;5.53;;
34828;SDS011;21042;47.620;12.188;2023-08-01T08:36:32;13.50;;;5.90;;
34828;SDS011;21042;47.620;12.188;2023-08-01T08:38:59;7.88;;;5.78;;
34828;SDS011;21042;47.620;12.188;2023-08-01T08:41:27;9.82;;;4.93;;
34828;SDS011;21042;47.620;12.188;2023-08-01T08:43:56;11.32;;;5.90;;
34828;SDS011;21042;47.620;12.188;2023-08-01T08:46:27;8.30;;;5.75;;
34828;SDS011;21042;47.620;12.188;2023-08-01T08:48:56;11.02;;;5.32;;
34828;SDS011;21042;47.620;12.188;2023-08-01T08:51:25;9.10;;;5.30;;
34828;SDS011;21042;47.620;12.188;2023-08-01T08:53:55;9.73;;;4.88;;
34828;SDS011;21042;47.620;12.188;2023-08-01T08:56:25;8.43;;;4.82;;
34828;SDS011;21042;47.620;12.188;2023-08-01T08:58:54;7.80;;;5.32;;
34828;SDS011;21042;47.620;12.188;2023-08-01T09:01:22;10.80;;;5.70;;
34828;SDS011;21042;47.620;12.188;2023-08-01T09:03:49;7.05;;;5.15;;
34828;SDS011;21042;47.620;12.188;2023-08-01T09:06:17;6.50;;;4.72;;
34828;SDS011;21042;47.620;12.188;2023-08-01T09:08:50;7.57;;;4.40;;
34828;SDS011;21042;47.620;12.188;2023-08-01T09:11:18;6.43;;;4.30;;
34828;SDS011;21042;47.620;12.188;2023-08-01T09:13:45;9.82;;;5.55;;
34828;SDS011;21042;47.620;12.188;2023-08-01T09:16:13;8.23;;;5.00;;
34828;SDS011;21042;47.620;12.188;2023-08-01T09:18:50;10.30;;;4.50;;
34828;SDS011;21042;47.620;12.188;2023-08-01T09:21:18;6.05;;;4.20;;
34828;SDS011;21042;47.620;12.188;2023-08-01T09:23:46;4.90;;;3.75;;
34828;SDS011;21042;47.620;12.188;2023-08-01T09:28:43;5.43;;;3.88;;
34828;SDS011;21042;47.620;12.188;2023-08-01T09:31:27;6.20;;;4.28;;
34828;SDS011;21042;47.620;12.188;2023-08-01T09:33:57;5.10;;;3.53;;
34828;SDS011;21042;47.620;12.188;2023-08-01T09:36:24;6.53;;;4.82;;
34828;SDS011;21042;47.620;12.188;2023-08-01T09:38:51;9.45;;;4.70;;
34828;SDS011;21042;47.620;12.188;2023-08-01T09:41:29;9.32;;;4.50;;
34828;SDS011;21042;47.620;12.188;2023-08-01T09:43:57;7.32;;;3.90;;
34828;SDS011;21042;47.620;12.188;2023-08-01T09:48:51;7.35;;;4.72;;
34828;SDS011;21042;47.620;12.188;2023-08-01T09:51:18;7.78;;;4.60;;
34828;SDS011;21042;47.620;12.188;2023-08-01T09:56:22;11.07;;;6.10;;
34828;SDS011;21042;47.620;12.188;2023-08-01T09:58:52;10.30;;;5.63;;
34828;SDS011;21042;47.620;12.188;2023-08-01T10:01:21;6.05;;;4.55;;
34828;SDS011;21042;47.620;12.188;2023-08-01T10:03:50;5.70;;;4.13;;
34828;SDS011;21042;47.620;12.188;2023-08-01T10:06:19;8.98;;;4.88;;
34828;SDS011;21042;47.620;12.188;2023-08-01T10:08:48;9.90;;;5.80;;
34828;SDS011;21042;47.620;12.188;2023-08-01T10:11:16;8.52;;;4.93;;
34828;SDS011;21042;47.620;12.188;2023-08-01T10:13:45;9.13;;;4.63;;
34828;SDS011;21042;47.620;12.188;2023-08-01T10:16:12;7.18;;;4.60;;
34828;SDS011;21042;47.620;12.188;2023-08-01T10:18:41;7.93;;;5.13;;
34828;SDS011;21042;47.620;12.188;2023-08-01T10:21:13;5.85;;;3.70;;
34828;SDS011;21042;47.620;12.188;2023-08-01T10:23:40;8.93;;;4.80;;
34828;SDS011;21042;47.620;12.188;2023-08-01T10:26:08;7.68;;;4.53;;
34828;SDS011;21042;47.620;12.188;2023-08-01T10:28:38;7.72;;;5.28;;
34828;SDS011;21042;47.620;12.188;2023-08-01T10:31:11;5.28;;;4.32;;
34828;SDS011;21042;47.620;12.188;2023-08-01T10:33:40;5.97;;;4.30;;
34828;SDS011;21042;47.620;12.188;2023-08-01T10:36:14;5.05;;;3.33;;
34828;SDS011;21042;47.620;12.188;2023-08-01T10:41:25;5.45;;;3.53;;
34828;SDS011;21042;47.620;12.188;2023-08-01T10:44:07;7.57;;;4.45;;
34828;SDS011;21042;47.620;12.188;2023-08-01T10:49:32;7.55;;;3.60;;
34828;SDS011;21042;47.620;12.188;2023-08-01T10:52:04;5.18;;;3.53;;
34828;SDS011;21042;47.620;12.188;2023-08-01T10:54:44;6.07;;;3.67;;
34828;SDS011;21042;47.620;12.188;2023-08-01T10:57:17;7.18;;;3.38;;
34828;SDS011;21042;47.620;12.188;2023-08-01T10:59:44;4.50;;;3.60;;
34828;SDS011;21042;47.620;12.188;2023-08-01T11:04:54;4.57;;;3.65;;
34828;SDS011;21042;47.620;12.188;2023-08-01T11:07:31;6.82;;;3.70;;
34828;SDS011;21042;47.620;12.188;2023-08-01T11:12:38;4.88;;;3.35;;
34828;SDS011;21042;47.620;12.188;2023-08-01T11:15:07;5.65;;;3.67;;
34828;SDS011;21042;47.620;12.188;2023-08-01T11:17:38;6.05;;;3.47;;
34828;SDS011;21042;47.620;12.188;2023-08-01T11:20:10;6.03;;;3.78;;
34828;SDS011;21042;47.620;12.188;2023-08-01T11:22:38;8.50;;;3.67;;
34828;SDS011;21042;47.620;12.188;2023-08-01T11:28:08;3.92;;;3.17;;
34828;SDS011;21042;47.620;12.188;2023-08-01T11:30:39;6.68;;;3.72;;
34828;SDS011;21042;47.620;12.188;2023-08-01T11:33:16;6.47;;;3.72;;
34828;SDS011;21042;47.620;12.188;2023-08-01T11:35:50;5.80;;;3.65;;
34828;SDS011;21042;47.620;12.188;2023-08-01T11:38:26;6.88;;;3.83;;
34828;SDS011;21042;47.620;12.188;2023-08-01T11:40:59;8.48;;;4.25;;
34828;SDS011;21042;47.620;12.188;2023-08-01T11:43:42;6.10;;;4.15;;
34828;SDS011;21042;47.620;12.188;2023-08-01T11:46:10;6.25;;;4.40;;
34828;SDS011;21042;47.620;12.188;2023-08-01T11:48:37;7.53;;;4.57;;
34828;SDS011;21042;47.620;12.188;2023-08-01T11:51:04;7.70;;;5.18;;
34828;SDS011;21042;47.620;12.188;2023-08-01T11:56:05;21.50;;;6.80;;
34828;SDS011;21042;47.620;12.188;2023-08-01T11:58:34;9.82;;;6.18;;
34828;SDS011;21042;47.620;12.188;2023-08-01T12:03:29;9.57;;;6.20;;
34828;SDS011;21042;47.620;12.188;2023-08-01T12:06:03;8.90;;;6.13;;
34828;SDS011;21042;47.620;12.188;2023-08-01T12:08:33;19.80;;;7.85;;
34828;SDS011;21042;47.620;12.188;2023-08-01T12:11:00;14.30;;;6.32;;
34828;SDS011;21042;47.620;12.188;2023-08-01T12:13:27;9.60;;;6.28;;
34828;SDS011;21042;47.620;12.188;2023-08-01T12:15:54;8.60;;;5.82;;
34828;SDS011;21042;47.620;12.188;2023-08-01T12:18:26;9.10;;;6.05;;
34828;SDS011;21042;47.620;12.188;2023-08-01T12:20:57;11.15;;;6.32;;
34828;SDS011;21042;47.620;12.188;2023-08-01T12:23:24;8.50;;;6.15;;
34828;SDS011;21042;47.620;12.188;2023-08-01T12:25:51;8.48;;;5.97;;
34828;SDS011;21042;47.620;12.188;2023-08-01T12:28:17;6.75;;;5.20;;
34828;SDS011;21042;47.620;12.188;2023-08-01T12:30:44;9.77;;;6.15;;
34828;SDS011;21042;47.620;12.188;2023-08-01T12:33:11;9.15;;;5.90;;
34828;SDS011;21042;47.620;12.188;2023-08-01T12:35:40;9.15;;;5.05;;
34828;SDS011;21042;47.620;12.188;2023-08-01T12:38:08;10.27;;;5.60;;
34828;SDS011;21042;47.620;12.188;2023-08-01T12:40:35;9.20;;;5.50;;
34828;SDS011;21042;47.620;12.188;2023-08-01T12:43:02;9.32;;;5.95;;
34828;SDS011;21042;47.620;12.188;2023-08-01T12:45:29;10.85;;;5.88;;
34828;SDS011;21042;47.620;12.188;2023-08-01T12:47:56;8.15;;;5.00;;
34828;SDS011;21042;47.620;12.188;2023-08-01T12:50:23;8.48;;;5.47;;
34828;SDS011;21042;47.620;12.188;2023-08-01T12:52:52;13.23;;;6.10;;
34828;SDS011;21042;47.620;12.188;2023-08-01T12:55:18;9.35;;;6.20;;
34828;SDS011;21042;47.620;12.188;2023-08-01T12:57:45;9.85;;;5.15;;
34828;SDS011;21042;47.620;12.188;2023-08-01T13:00:12;8.18;;;5.00;;
34828;SDS011;21042;47.620;12.188;2023-08-01T13:02:39;8.35;;;5.20;;
34828;SDS011;21042;47.620;12.188;2023-08-01T13:05:06;8.65;;;5.53;;
34828;SDS011;21042;47.620;12.188;2023-08-01T13:07:33;8.40;;;6.07;;
34828;SDS011;21042;47.620;12.188;2023-08-01T13:10:00;10.95;;;5.60;;
34828;SDS011;21042;47.620;12.188;2023-08-01T13:14:54;8.77;;;5.65;;
34828;SDS011;21042;47.620;12.188;2023-08-01T13:17:38;10.88;;;5.00;;
34828;SDS011;21042;47.620;12.188;2023-08-01T13:20:05;6.60;;;4.68;;
34828;SDS011;21042;47.620;12.188;2023-08-01T13:22:32;4.60;;;3.65;;
34828;SDS011;21042;47.620;12.188;2023-08-01T13:24:59;6.70;;;4.07;;
34828;SDS011;21042;47.620;12.188;2023-08-01T13:27:26;7.85;;;4.05;;
34828;SDS011;21042;47.620;12.188;2023-08-01T13:29:52;8.15;;;4.05;;
34828;SDS011;21042;47.620;12.188;2023-08-01T13:32:20;6.95;;;4.18;;
34828;SDS011;21042;47.620;12.188;2023-08-01T13:34:47;6.88;;;3.70;;
34828;SDS011;21042;47.620;12.188;2023-08-01T13:37:14;6.80;;;3.92;;
34828;SDS011;21042;47.620;12.188;2023-08-01T13:39:41;8.55;;;4.15;;
34828;SDS011;21042;47.620;12.188;2023-08-01T13:42:08;4.32;;;3.40;;
34828;SDS011;21042;47.620;12.188;2023-08-01T13:44:34;7.88;;;4.00;;
34828;SDS011;21042;47.620;12.188;2023-08-01T13:47:01;6.07;;;3.95;;
34828;SDS011;21042;47.620;12.188;2023-08-01T13:49:29;4.53;;;3.50;;
34828;SDS011;21042;47.620;12.188;2023-08-01T13:51:56;4.90;;;3.40;;
34828;SDS011;21042;47.620;12.188;2023-08-01T13:54:23;6.10;;;3.80;;
34828;SDS011;21042;47.620;12.188;2023-08-01T13:56:50;4.90;;;3.65;;
34828;SDS011;21042;47.620;12.188;2023-08-01T13:59:18;7.32;;;3.70;;
34828;SDS011;21042;47.620;12.188;2023-08-01T14:01:45;5.28;;;3.50;;
34828;SDS011;21042;47.620;12.188;2023-08-01T14:04:12;5.88;;;3.40;;
34828;SDS011;21042;47.620;12.188;2023-08-01T14:06:42;7.10;;;4.20;;
34828;SDS011;21042;47.620;12.188;2023-08-01T14:09:10;4.95;;;3.60;;
34828;SDS011;21042;47.620;12.188;2023-08-01T14:11:37;6.75;;;3.70;;
34828;SDS011;21042;47.620;12.188;2023-08-01T14:14:05;5.57;;;3.60;;
34828;SDS011;21042;47.620;12.188;2023-08-01T14:16:32;9.48;;;3.92;;
34828;SDS011;21042;47.620;12.188;2023-08-01T14:18:59;4.30;;;3.28;;
34828;SDS011;21042;47.620;12.188;2023-08-01T14:21:26;5.60;;;3.80;;
34828;SDS011;21042;47.620;12.188;2023-08-01T14:23:53;4.80;;;3.42;;
34828;SDS011;21042;47.620;12.188;2023-08-01T14:26:19;7.10;;;4.10;;
34828;SDS011;21042;47.620;12.188;2023-08-01T14:28:46;5.22;;;3.35;;
34828;SDS011;21042;47.620;12.188;2023-08-01T14:31:14;5.97;;;3.40;;
34828;SDS011;21042;47.620;12.188;2023-08-01T14:33:40;5.95;;;3.50;;
34828;SDS011;21042;47.620;12.188;2023-08-01T14:36:08;5.40;;;3.42;;
34828;SDS011;21042;47.620;12.188;2023-08-01T14:38:38;5.82;;;3.95;;
34828;SDS011;21042;47.620;12.188;2023-08-01T14:41:06;5.53;;;3.67;;
34828;SDS011;21042;47.620;12.188;2023-08-01T14:43:52;5.60;;;3.63;;
34828;SDS011;21042;47.620;12.188;2023-08-01T14:46:19;5.80;;;3.85;;
34828;SDS011;21042;47.620;12.188;2023-08-01T14:48:46;5.20;;;3.55;;
34828;SDS011;21042;47.620;12.188;2023-08-01T14:51:13;7.13;;;4.30;;
34828;SDS011;21042;47.620;12.188;2023-08-01T14:53:40;4.60;;;3.60;;
34828;SDS011;21042;47.620;12.188;2023-08-01T14:56:06;6.13;;;3.78;;
34828;SDS011;21042;47.620;12.188;2023-08-01T14:58:34;6.70;;;3.88;;
34828;SDS011;21042;47.620;12.188;2023-08-01T15:01:14;6.55;;;3.22;;
34828;SDS011;21042;47.620;12.188;2023-08-01T15:03:42;4.60;;;3.30;;
34828;SDS011;21042;47.620;12.188;2023-08-01T15:06:09;3.85;;;2.78;;
34828;SDS011;21042;47.620;12.188;2023-08-01T15:08:37;6.47;;;2.97;;
34828;SDS011;21042;47.620;12.188;2023-08-01T15:11:05;4.03;;;3.20;;
34828;SDS011;21042;47.620;12.188;2023-08-01T15:13:34;7.25;;;3.60;;
34828;SDS011;21042;47.620;12.188;2023-08-01T15:16:01;6.07;;;3.50;;
34828;SDS011;21042;47.620;12.188;2023-08-01T15:18:28;7.07;;;3.63;;